sensor_id;sensor_type;location;lat;lon;timestamp;P1;P2;P0
36453;PMS5003;22478;51.740;-1.314;2023-04-06T00:00:13;54;52;
36453;PMS5003;22478;51.740;-1.314;2023-04-06T00:02:40;74;73;
36453;PMS5003;22478;51.740;-1.314;2023-04-06T00:05:08;68;66;
36453;PMS5003;22478;51.740;-1.314;2023-04-06T00:07:35;61;59;
36453;PMS5003;22478;51.740;-1.314;2023-04-06T00:10:02;73;73;
36453;PMS5003;22478;51.740;-1.314;2023-04-06T00:12:30;84;84;
36453;PMS5003;22478;51.740;-1.314;2023-04-06T00:14:58;70;69;
36453;PMS5003;22478;51.740;-1.314;2023-04-06T00:17:26;78;74;
36453;PMS5003;22478;51.740;-1.314;2023-04-06T00:19:53;75;75;
36453;PMS5003;22478;51.740;-1.314;2023-04-06T00:22:21;79;77;
36453;PMS5003;22478;51.740;-1.314;2023-04-06T00:24:48;67;67;
36453;PMS5003;22478;51.740;-1.314;2023-04-06T00:27:16;74;73;
36453;PMS5003;22478;51.740;-1.314;2023-04-06T00:29:44;69;68;
36453;PMS5003;22478;51.740;-1.314;2023-04-06T00:32:11;63;62;
36453;PMS5003;22478;51.740;-1.314;2023-04-06T00:34:38;57;56;
36453;PMS5003;22478;51.740;-1.314;2023-04-06T00:37:05;59;56;
36453;PMS5003;22478;51.740;-1.314;2023-04-06T00:39:33;71;70;
36453;PMS5003;22478;51.740;-1.314;2023-04-06T00:42:00;48;48;
36453;PMS5003;22478;51.740;-1.314;2023-04-06T00:44:37;49;47;
36453;PMS5003;22478;51.740;-1.314;2023-04-06T00:47:04;57;56;
36453;PMS5003;22478;51.740;-1.314;2023-04-06T00:49:31;51;50;
36453;PMS5003;22478;51.740;-1.314;2023-04-06T00:51:59;53;53;
36453;PMS5003;22478;51.740;-1.314;2023-04-06T00:54:26;58;56;
36453;PMS5003;22478;51.740;-1.314;2023-04-06T00:56:55;54;54;
36453;PMS5003;22478;51.740;-1.314;2023-04-06T00:59:23;64;64;
36453;PMS5003;22478;51.740;-1.314;2023-04-06T01:01:50;57;57;
36453;PMS5003;22478;51.740;-1.314;2023-04-06T01:04:17;74;74;
36453;PMS5003;22478;51.740;-1.314;2023-04-06T01:06:45;48;47;
36453;PMS5003;22478;51.740;-1.314;2023-04-06T01:09:12;56;56;
36453;PMS5003;22478;51.740;-1.314;2023-04-06T01:11:40;54;53;
36453;PMS5003;22478;51.740;-1.314;2023-04-06T01:14:07;65;61;
36453;PMS5003;22478;51.740;-1.314;2023-04-06T01:16:35;46;46;
36453;PMS5003;22478;51.740;-1.314;2023-04-06T01:19:06;35;35;
36453;PMS5003;22478;51.740;-1.314;2023-04-06T01:21:34;47;47;
36453;PMS5003;22478;51.740;-1.314;2023-04-06T01:24:01;34;34;
36453;PMS5003;22478;51.740;-1.314;2023-04-06T01:26:29;51;51;
36453;PMS5003;22478;51.740;-1.314;2023-04-06T01:28:56;49;49;
36453;PMS5003;22478;51.740;-1.314;2023-04-06T01:31:24;43;43;
36453;PMS5003;22478;51.740;-1.314;2023-04-06T01:33:51;53;53;
36453;PMS5003;22478;51.740;-1.314;2023-04-06T01:36:19;47;45;
36453;PMS5003;22478;51.740;-1.314;2023-04-06T01:38:46;48;48;
36453;PMS5003;22478;51.740;-1.314;2023-04-06T01:41:14;44;44;
36453;PMS5003;22478;51.740;-1.314;2023-04-06T01:43:41;59;57;
36453;PMS5003;22478;51.740;-1.314;2023-04-06T01:46:08;68;66;
36453;PMS5003;22478;51.740;-1.314;2023-04-06T01:48:36;69;69;
36453;PMS5003;22478;51.740;-1.314;2023-04-06T01:51:03;56;53;
36453;PMS5003;22478;51.740;-1.314;2023-04-06T01:53:30;51;49;
36453;PMS5003;22478;51.740;-1.314;2023-04-06T01:55:58;42;41;
36453;PMS5003;22478;51.740;-1.314;2023-04-06T01:58:25;39;38;
36453;PMS5003;22478;51.740;-1.314;2023-04-06T02:00:52;38;38;
36453;PMS5003;22478;51.740;-1.314;2023-04-06T02:03:19;43;39;
36453;PMS5003;22478;51.740;-1.314;2023-04-06T02:05:46;40;39;
36453;PMS5003;22478;51.740;-1.314;2023-04-06T02:08:13;45;45;
36453;PMS5003;22478;51.740;-1.314;2023-04-06T02:10:41;37;37;
36453;PMS5003;22478;51.740;-1.314;2023-04-06T02:13:08;46;44;
36453;PMS5003;22478;51.740;-1.314;2023-04-06T02:15:35;42;41;
36453;PMS5003;22478;51.740;-1.314;2023-04-06T02:18:03;35;33;
36453;PMS5003;22478;51.740;-1.314;2023-04-06T02:20:30;37;36;
36453;PMS5003;22478;51.740;-1.314;2023-04-06T02:22:58;39;36;
36453;PMS5003;22478;51.740;-1.314;2023-04-06T02:25:26;39;37;
36453;PMS5003;22478;51.740;-1.314;2023-04-06T02:27:53;36;36;
36453;PMS5003;22478;51.740;-1.314;2023-04-06T02:30:21;34;34;
36453;PMS5003;22478;51.740;-1.314;2023-04-06T02:32:48;42;40;
36453;PMS5003;22478;51.740;-1.314;2023-04-06T02:35:15;39;39;
36453;PMS5003;22478;51.740;-1.314;2023-04-06T02:37:42;46;45;
36453;PMS5003;22478;51.740;-1.314;2023-04-06T02:40:10;45;44;
36453;PMS5003;22478;51.740;-1.314;2023-04-06T02:42:37;42;41;
36453;PMS5003;22478;51.740;-1.314;2023-04-06T02:45:04;42;39;
36453;PMS5003;22478;51.740;-1.314;2023-04-06T02:47:33;34;34;
36453;PMS5003;22478;51.740;-1.314;2023-04-06T02:50:00;35;34;
36453;PMS5003;22478;51.740;-1.314;2023-04-06T02:52:27;44;43;
36453;PMS5003;22478;51.740;-1.314;2023-04-06T02:54:55;38;38;
36453;PMS5003;22478;51.740;-1.314;2023-04-06T02:57:22;43;40;
36453;PMS5003;22478;51.740;-1.314;2023-04-06T02:59:49;41;40;
36453;PMS5003;22478;51.740;-1.314;2023-04-06T03:02:16;48;46;
36453;PMS5003;22478;51.740;-1.314;2023-04-06T03:04:43;50;50;
36453;PMS5003;22478;51.740;-1.314;2023-04-06T03:07:11;53;52;
36453;PMS5003;22478;51.740;-1.314;2023-04-06T03:09:39;59;57;
36453;PMS5003;22478;51.740;-1.314;2023-04-06T03:12:06;81;80;
36453;PMS5003;22478;51.740;-1.314;2023-04-06T03:14:33;72;71;
36453;PMS5003;22478;51.740;-1.314;2023-04-06T03:17:01;58;58;
36453;PMS5003;22478;51.740;-1.314;2023-04-06T03:19:28;94;91;
36453;PMS5003;22478;51.740;-1.314;2023-04-06T03:21:55;92;92;
36453;PMS5003;22478;51.740;-1.314;2023-04-06T03:24:23;79;77;
36453;PMS5003;22478;51.740;-1.314;2023-04-06T03:26:51;92;92;
36453;PMS5003;22478;51.740;-1.314;2023-04-06T03:29:18;101;99;
36453;PMS5003;22478;51.740;-1.314;2023-04-06T03:31:45;99;99;
36453;PMS5003;22478;51.740;-1.314;2023-04-06T03:34:13;89;89;
36453;PMS5003;22478;51.740;-1.314;2023-04-06T03:36:40;93;92;
36453;PMS5003;22478;51.740;-1.314;2023-04-06T03:39:08;81;79;
36453;PMS5003;22478;51.740;-1.314;2023-04-06T03:41:35;74;72;
36453;PMS5003;22478;51.740;-1.314;2023-04-06T03:44:03;71;69;
36453;PMS5003;22478;51.740;-1.314;2023-04-06T03:46:31;68;65;
36453;PMS5003;22478;51.740;-1.314;2023-04-06T03:48:59;69;69;
36453;PMS5003;22478;51.740;-1.314;2023-04-06T03:51:26;77;75;
36453;PMS5003;22478;51.740;-1.314;2023-04-06T03:53:53;72;69;
36453;PMS5003;22478;51.740;-1.314;2023-04-06T03:56:20;70;67;
36453;PMS5003;22478;51.740;-1.314;2023-04-06T03:58:48;68;66;
36453;PMS5003;22478;51.740;-1.314;2023-04-06T04:01:15;69;69;
36453;PMS5003;22478;51.740;-1.314;2023-04-06T04:03:42;73;72;
36453;PMS5003;22478;51.740;-1.314;2023-04-06T04:06:10;61;59;
36453;PMS5003;22478;51.740;-1.314;2023-04-06T04:08:38;61;58;
36453;PMS5003;22478;51.740;-1.314;2023-04-06T04:11:05;65;64;
36453;PMS5003;22478;51.740;-1.314;2023-04-06T04:13:33;88;86;
36453;PMS5003;22478;51.740;-1.314;2023-04-06T04:16:00;78;77;
36453;PMS5003;22478;51.740;-1.314;2023-04-06T04:18:27;76;74;
36453;PMS5003;22478;51.740;-1.314;2023-04-06T04:20:54;74;74;
36453;PMS5003;22478;51.740;-1.314;2023-04-06T04:23:22;79;78;
36453;PMS5003;22478;51.740;-1.314;2023-04-06T04:25:49;69;64;
36453;PMS5003;22478;51.740;-1.314;2023-04-06T04:28:16;43;39;
36453;PMS5003;22478;51.740;-1.314;2023-04-06T04:30:43;39;38;
36453;PMS5003;22478;51.740;-1.314;2023-04-06T04:33:10;65;65;
36453;PMS5003;22478;51.740;-1.314;2023-04-06T04:35:37;29;27;
36453;PMS5003;22478;51.740;-1.314;2023-04-06T04:38:05;42;41;
36453;PMS5003;22478;51.740;-1.314;2023-04-06T04:40:33;30;30;
36453;PMS5003;22478;51.740;-1.314;2023-04-06T04:43:00;37;35;
36453;PMS5003;22478;51.740;-1.314;2023-04-06T04:45:28;28;27;
36453;PMS5003;22478;51.740;-1.314;2023-04-06T04:47:55;31;31;
36453;PMS5003;22478;51.740;-1.314;2023-04-06T04:50:22;40;39;
36453;PMS5003;22478;51.740;-1.314;2023-04-06T04:52:50;38;38;
36453;PMS5003;22478;51.740;-1.314;2023-04-06T04:55:18;41;39;
36453;PMS5003;22478;51.740;-1.314;2023-04-06T04:57:45;40;38;
36453;PMS5003;22478;51.740;-1.314;2023-04-06T05:00:12;36;36;
36453;PMS5003;22478;51.740;-1.314;2023-04-06T05:02:40;29;29;
36453;PMS5003;22478;51.740;-1.314;2023-04-06T05:05:08;21;20;
36453;PMS5003;22478;51.740;-1.314;2023-04-06T05:07:35;30;28;
36453;PMS5003;22478;51.740;-1.314;2023-04-06T05:10:03;30;30;
36453;PMS5003;22478;51.740;-1.314;2023-04-06T05:12:30;34;34;
36453;PMS5003;22478;51.740;-1.314;2023-04-06T05:14:57;27;27;
36453;PMS5003;22478;51.740;-1.314;2023-04-06T05:17:25;31;31;
36453;PMS5003;22478;51.740;-1.314;2023-04-06T05:19:52;33;33;
36453;PMS5003;22478;51.740;-1.314;2023-04-06T05:22:19;42;38;
36453;PMS5003;22478;51.740;-1.314;2023-04-06T05:24:46;40;39;
36453;PMS5003;22478;51.740;-1.314;2023-04-06T05:27:14;37;37;
36453;PMS5003;22478;51.740;-1.314;2023-04-06T05:29:41;75;75;
36453;PMS5003;22478;51.740;-1.314;2023-04-06T05:32:09;56;55;
36453;PMS5003;22478;51.740;-1.314;2023-04-06T05:34:36;39;36;
36453;PMS5003;22478;51.740;-1.314;2023-04-06T05:37:04;68;66;
36453;PMS5003;22478;51.740;-1.314;2023-04-06T05:39:31;36;33;
36453;PMS5003;22478;51.740;-1.314;2023-04-06T05:42:01;49;48;
36453;PMS5003;22478;51.740;-1.314;2023-04-06T05:44:30;62;60;
36453;PMS5003;22478;51.740;-1.314;2023-04-06T05:46:57;69;68;
36453;PMS5003;22478;51.740;-1.314;2023-04-06T05:49:24;64;64;
36453;PMS5003;22478;51.740;-1.314;2023-04-06T05:51:51;60;56;
36453;PMS5003;22478;51.740;-1.314;2023-04-06T05:54:18;83;83;
36453;PMS5003;22478;51.740;-1.314;2023-04-06T05:56:47;36;33;
36453;PMS5003;22478;51.740;-1.314;2023-04-06T05:59:14;92;91;
36453;PMS5003;22478;51.740;-1.314;2023-04-06T06:01:42;97;96;
36453;PMS5003;22478;51.740;-1.314;2023-04-06T06:04:09;34;34;
36453;PMS5003;22478;51.740;-1.314;2023-04-06T06:06:36;65;64;
36453;PMS5003;22478;51.740;-1.314;2023-04-06T06:09:04;80;78;
36453;PMS5003;22478;51.740;-1.314;2023-04-06T06:11:31;56;53;
36453;PMS5003;22478;51.740;-1.314;2023-04-06T06:13:59;73;71;
36453;PMS5003;22478;51.740;-1.314;2023-04-06T06:16:26;69;68;
36453;PMS5003;22478;51.740;-1.314;2023-04-06T06:18:54;84;81;
36453;PMS5003;22478;51.740;-1.314;2023-04-06T06:21:21;79;74;
36453;PMS5003;22478;51.740;-1.314;2023-04-06T06:23:49;70;67;
36453;PMS5003;22478;51.740;-1.314;2023-04-06T06:26:16;83;82;
36453;PMS5003;22478;51.740;-1.314;2023-04-06T06:28:43;74;72;
36453;PMS5003;22478;51.740;-1.314;2023-04-06T06:31:11;70;70;
36453;PMS5003;22478;51.740;-1.314;2023-04-06T06:33:39;78;76;
36453;PMS5003;22478;51.740;-1.314;2023-04-06T06:36:06;63;62;
36453;PMS5003;22478;51.740;-1.314;2023-04-06T06:38:34;63;63;
36453;PMS5003;22478;51.740;-1.314;2023-04-06T06:41:01;66;63;
36453;PMS5003;22478;51.740;-1.314;2023-04-06T06:43:29;85;85;
36453;PMS5003;22478;51.740;-1.314;2023-04-06T06:45:56;86;86;
36453;PMS5003;22478;51.740;-1.314;2023-04-06T06:48:24;67;66;
36453;PMS5003;22478;51.740;-1.314;2023-04-06T06:50:52;86;85;
36453;PMS5003;22478;51.740;-1.314;2023-04-06T06:53:19;90;88;
36453;PMS5003;22478;51.740;-1.314;2023-04-06T06:55:46;49;49;
36453;PMS5003;22478;51.740;-1.314;2023-04-06T06:58:13;65;65;
36453;PMS5003;22478;51.740;-1.314;2023-04-06T07:00:40;78;77;
36453;PMS5003;22478;51.740;-1.314;2023-04-06T07:03:07;33;30;
36453;PMS5003;22478;51.740;-1.314;2023-04-06T07:05:35;27;26;
36453;PMS5003;22478;51.740;-1.314;2023-04-06T07:08:02;56;54;
36453;PMS5003;22478;51.740;-1.314;2023-04-06T07:10:29;43;43;
36453;PMS5003;22478;51.740;-1.314;2023-04-06T07:12:56;74;71;
36453;PMS5003;22478;51.740;-1.314;2023-04-06T07:15:24;75;74;
36453;PMS5003;22478;51.740;-1.314;2023-04-06T07:17:51;58;53;
36453;PMS5003;22478;51.740;-1.314;2023-04-06T07:20:18;69;66;
36453;PMS5003;22478;51.740;-1.314;2023-04-06T07:22:46;76;74;
36453;PMS5003;22478;51.740;-1.314;2023-04-06T07:25:14;31;31;
36453;PMS5003;22478;51.740;-1.314;2023-04-06T07:27:41;78;77;
36453;PMS5003;22478;51.740;-1.314;2023-04-06T07:30:08;68;68;
36453;PMS5003;22478;51.740;-1.314;2023-04-06T07:32:36;73;68;
36453;PMS5003;22478;51.740;-1.314;2023-04-06T07:35:04;75;73;
36453;PMS5003;22478;51.740;-1.314;2023-04-06T07:37:32;90;88;
36453;PMS5003;22478;51.740;-1.314;2023-04-06T07:39:59;82;82;
36453;PMS5003;22478;51.740;-1.314;2023-04-06T07:42:26;84;82;
36453;PMS5003;22478;51.740;-1.314;2023-04-06T07:44:53;62;62;
36453;PMS5003;22478;51.740;-1.314;2023-04-06T07:47:22;85;79;
36453;PMS5003;22478;51.740;-1.314;2023-04-06T07:49:50;100;98;
36453;PMS5003;22478;51.740;-1.314;2023-04-06T07:52:17;47;47;
36453;PMS5003;22478;51.740;-1.314;2023-04-06T07:54:44;25;24;
36453;PMS5003;22478;51.740;-1.314;2023-04-06T07:57:11;49;49;
36453;PMS5003;22478;51.740;-1.314;2023-04-06T07:59:39;31;30;
36453;PMS5003;22478;51.740;-1.314;2023-04-06T08:02:06;32;29;
36453;PMS5003;22478;51.740;-1.314;2023-04-06T08:04:34;50;49;
36453;PMS5003;22478;51.740;-1.314;2023-04-06T08:07:02;19;19;
36453;PMS5003;22478;51.740;-1.314;2023-04-06T08:09:29;18;17;
36453;PMS5003;22478;51.740;-1.314;2023-04-06T08:11:56;30;30;
36453;PMS5003;22478;51.740;-1.314;2023-04-06T08:14:24;35;35;
36453;PMS5003;22478;51.740;-1.314;2023-04-06T08:16:52;33;31;
36453;PMS5003;22478;51.740;-1.314;2023-04-06T08:19:19;20;20;
36453;PMS5003;22478;51.740;-1.314;2023-04-06T08:21:47;27;25;
36453;PMS5003;22478;51.740;-1.314;2023-04-06T08:24:14;30;30;
36453;PMS5003;22478;51.740;-1.314;2023-04-06T08:26:41;22;22;
36453;PMS5003;22478;51.740;-1.314;2023-04-06T08:29:08;19;19;
36453;PMS5003;22478;51.740;-1.314;2023-04-06T08:31:36;21;21;
36453;PMS5003;22478;51.740;-1.314;2023-04-06T08:34:03;33;33;
36453;PMS5003;22478;51.740;-1.314;2023-04-06T08:37:22;26;23;
36453;PMS5003;22478;51.740;-1.314;2023-04-06T08:39:49;23;22;
36453;PMS5003;22478;51.740;-1.314;2023-04-06T08:42:19;24;23;
36453;PMS5003;22478;51.740;-1.314;2023-04-06T08:44:48;29;26;
36453;PMS5003;22478;51.740;-1.314;2023-04-06T08:47:16;21;20;
36453;PMS5003;22478;51.740;-1.314;2023-04-06T08:49:44;24;23;
36453;PMS5003;22478;51.740;-1.314;2023-04-06T08:52:12;27;25;
36453;PMS5003;22478;51.740;-1.314;2023-04-06T08:54:42;19;18;
36453;PMS5003;22478;51.740;-1.314;2023-04-06T08:57:09;24;24;
36453;PMS5003;22478;51.740;-1.314;2023-04-06T08:59:36;24;23;
36453;PMS5003;22478;51.740;-1.314;2023-04-06T09:02:04;26;26;
36453;PMS5003;22478;51.740;-1.314;2023-04-06T09:04:34;23;23;
36453;PMS5003;22478;51.740;-1.314;2023-04-06T09:07:03;18;16;
36453;PMS5003;22478;51.740;-1.314;2023-04-06T09:09:30;18;16;
36453;PMS5003;22478;51.740;-1.314;2023-04-06T09:11:58;14;14;
36453;PMS5003;22478;51.740;-1.314;2023-04-06T09:14:40;17;16;
36453;PMS5003;22478;51.740;-1.314;2023-04-06T09:17:07;12;12;
36453;PMS5003;22478;51.740;-1.314;2023-04-06T09:19:44;11;11;
36453;PMS5003;22478;51.740;-1.314;2023-04-06T09:22:11;9;8;
36453;PMS5003;22478;51.740;-1.314;2023-04-06T09:24:40;7;7;
36453;PMS5003;22478;51.740;-1.314;2023-04-06T09:27:08;8;8;
36453;PMS5003;22478;51.740;-1.314;2023-04-06T09:29:36;13;13;
36453;PMS5003;22478;51.740;-1.314;2023-04-06T09:32:03;17;17;
36453;PMS5003;22478;51.740;-1.314;2023-04-06T09:34:32;7;7;
36453;PMS5003;22478;51.740;-1.314;2023-04-06T09:36:59;9;9;
36453;PMS5003;22478;51.740;-1.314;2023-04-06T09:39:26;9;9;
36453;PMS5003;22478;51.740;-1.314;2023-04-06T09:41:53;9;7;
36453;PMS5003;22478;51.740;-1.314;2023-04-06T09:44:20;7;6;
36453;PMS5003;22478;51.740;-1.314;2023-04-06T09:46:48;4;4;
36453;PMS5003;22478;51.740;-1.314;2023-04-06T09:49:16;4;4;
36453;PMS5003;22478;51.740;-1.314;2023-04-06T09:51:45;6;5;
36453;PMS5003;22478;51.740;-1.314;2023-04-06T09:54:15;11;10;
36453;PMS5003;22478;51.740;-1.314;2023-04-06T09:56:47;6;6;
36453;PMS5003;22478;51.740;-1.314;2023-04-06T09:59:18;20;20;
36453;PMS5003;22478;51.740;-1.314;2023-04-06T10:01:53;10;10;
36453;PMS5003;22478;51.740;-1.314;2023-04-06T10:04:27;14;14;
36453;PMS5003;22478;51.740;-1.314;2023-04-06T10:07:03;15;13;
36453;PMS5003;22478;51.740;-1.314;2023-04-06T10:09:32;23;22;
36453;PMS5003;22478;51.740;-1.314;2023-04-06T10:12:03;12;12;
36453;PMS5003;22478;51.740;-1.314;2023-04-06T10:14:31;21;21;
36453;PMS5003;22478;51.740;-1.314;2023-04-06T10:17:00;20;20;
36453;PMS5003;22478;51.740;-1.314;2023-04-06T10:19:32;17;17;
36453;PMS5003;22478;51.740;-1.314;2023-04-06T10:22:05;22;21;
36453;PMS5003;22478;51.740;-1.314;2023-04-06T10:24:35;17;17;
36453;PMS5003;22478;51.740;-1.314;2023-04-06T10:27:03;8;8;
36453;PMS5003;22478;51.740;-1.314;2023-04-06T10:29:41;6;6;
36453;PMS5003;22478;51.740;-1.314;2023-04-06T10:32:10;6;6;
36453;PMS5003;22478;51.740;-1.314;2023-04-06T10:34:37;6;6;
36453;PMS5003;22478;51.740;-1.314;2023-04-06T10:37:20;11;9;
36453;PMS5003;22478;51.740;-1.314;2023-04-06T10:39:47;17;17;
36453;PMS5003;22478;51.740;-1.314;2023-04-06T10:42:20;5;5;
36453;PMS5003;22478;51.740;-1.314;2023-04-06T10:44:50;3;3;
36453;PMS5003;22478;51.740;-1.314;2023-04-06T10:47:18;5;5;
36453;PMS5003;22478;51.740;-1.314;2023-04-06T10:49:45;4;4;
36453;PMS5003;22478;51.740;-1.314;2023-04-06T10:52:12;12;12;
36453;PMS5003;22478;51.740;-1.314;2023-04-06T10:54:41;14;14;
36453;PMS5003;22478;51.740;-1.314;2023-04-06T10:57:09;11;11;
36453;PMS5003;22478;51.740;-1.314;2023-04-06T10:59:41;14;13;
36453;PMS5003;22478;51.740;-1.314;2023-04-06T11:02:18;6;6;
36453;PMS5003;22478;51.740;-1.314;2023-04-06T11:04:53;16;16;
36453;PMS5003;22478;51.740;-1.314;2023-04-06T11:07:22;9;9;
36453;PMS5003;22478;51.740;-1.314;2023-04-06T11:09:50;9;9;
36453;PMS5003;22478;51.740;-1.314;2023-04-06T11:12:21;8;7;
36453;PMS5003;22478;51.740;-1.314;2023-04-06T11:14:53;5;5;
36453;PMS5003;22478;51.740;-1.314;2023-04-06T11:17:25;7;7;
36453;PMS5003;22478;51.740;-1.314;2023-04-06T11:19:53;4;4;
36453;PMS5003;22478;51.740;-1.314;2023-04-06T11:22:20;6;6;
36453;PMS5003;22478;51.740;-1.314;2023-04-06T11:24:47;5;5;
36453;PMS5003;22478;51.740;-1.314;2023-04-06T11:27:14;5;3;
36453;PMS5003;22478;51.740;-1.314;2023-04-06T11:29:42;5;3;
36453;PMS5003;22478;51.740;-1.314;2023-04-06T11:32:11;19;19;
36453;PMS5003;22478;51.740;-1.314;2023-04-06T11:34:46;19;18;
36453;PMS5003;22478;51.740;-1.314;2023-04-06T11:37:14;9;9;
36453;PMS5003;22478;51.740;-1.314;2023-04-06T11:39:43;11;11;
36453;PMS5003;22478;51.740;-1.314;2023-04-06T11:42:21;6;5;
36453;PMS5003;22478;51.740;-1.314;2023-04-06T11:44:50;4;4;
36453;PMS5003;22478;51.740;-1.314;2023-04-06T11:47:19;6;6;
36453;PMS5003;22478;51.740;-1.314;2023-04-06T11:49:53;7;7;
36453;PMS5003;22478;51.740;-1.314;2023-04-06T11:52:21;7;7;
36453;PMS5003;22478;51.740;-1.314;2023-04-06T11:54:50;6;5;
36453;PMS5003;22478;51.740;-1.314;2023-04-06T11:57:18;8;7;
36453;PMS5003;22478;51.740;-1.314;2023-04-06T11:59:46;7;7;
36453;PMS5003;22478;51.740;-1.314;2023-04-06T12:02:13;4;4;
36453;PMS5003;22478;51.740;-1.314;2023-04-06T12:04:41;13;13;
36453;PMS5003;22478;51.740;-1.314;2023-04-06T12:07:08;8;8;
36453;PMS5003;22478;51.740;-1.314;2023-04-06T12:09:35;3;2;
36453;PMS5003;22478;51.740;-1.314;2023-04-06T12:12:03;2;2;
36453;PMS5003;22478;51.740;-1.314;2023-04-06T12:14:31;2;2;
36453;PMS5003;22478;51.740;-1.314;2023-04-06T12:16:58;2;1;
36453;PMS5003;22478;51.740;-1.314;2023-04-06T12:19:24;5;5;
36453;PMS5003;22478;51.740;-1.314;2023-04-06T12:21:52;5;5;
36453;PMS5003;22478;51.740;-1.314;2023-04-06T12:24:19;3;2;
36453;PMS5003;22478;51.740;-1.314;2023-04-06T12:26:46;6;6;
36453;PMS5003;22478;51.740;-1.314;2023-04-06T12:29:13;10;10;
36453;PMS5003;22478;51.740;-1.314;2023-04-06T12:31:41;11;10;
36453;PMS5003;22478;51.740;-1.314;2023-04-06T12:34:09;12;12;
36453;PMS5003;22478;51.740;-1.314;2023-04-06T12:36:36;6;6;
36453;PMS5003;22478;51.740;-1.314;2023-04-06T12:39:04;9;9;
36453;PMS5003;22478;51.740;-1.314;2023-04-06T12:41:31;6;6;
36453;PMS5003;22478;51.740;-1.314;2023-04-06T12:43:58;9;8;
36453;PMS5003;22478;51.740;-1.314;2023-04-06T12:46:25;7;5;
36453;PMS5003;22478;51.740;-1.314;2023-04-06T12:48:53;13;11;
36453;PMS5003;22478;51.740;-1.314;2023-04-06T12:51:20;5;5;
36453;PMS5003;22478;51.740;-1.314;2023-04-06T12:53:47;10;10;
36453;PMS5003;22478;51.740;-1.314;2023-04-06T12:56:15;2;2;
36453;PMS5003;22478;51.740;-1.314;2023-04-06T12:58:43;0;0;
36453;PMS5003;22478;51.740;-1.314;2023-04-06T13:01:11;0;0;
36453;PMS5003;22478;51.740;-1.314;2023-04-06T13:03:39;1;1;
36453;PMS5003;22478;51.740;-1.314;2023-04-06T13:06:07;2;2;
36453;PMS5003;22478;51.740;-1.314;2023-04-06T13:08:34;0;0;
36453;PMS5003;22478;51.740;-1.314;2023-04-06T13:11:02;1;1;
36453;PMS5003;22478;51.740;-1.314;2023-04-06T13:13:30;2;2;
36453;PMS5003;22478;51.740;-1.314;2023-04-06T13:15:59;3;3;
36453;PMS5003;22478;51.740;-1.314;2023-04-06T13:18:27;7;7;
36453;PMS5003;22478;51.740;-1.314;2023-04-06T13:20:55;5;5;
36453;PMS5003;22478;51.740;-1.314;2023-04-06T13:23:22;4;4;
36453;PMS5003;22478;51.740;-1.314;2023-04-06T13:25:56;2;1;
36453;PMS5003;22478;51.740;-1.314;2023-04-06T13:28:24;4;2;
36453;PMS5003;22478;51.740;-1.314;2023-04-06T13:30:51;6;5;
36453;PMS5003;22478;51.740;-1.314;2023-04-06T13:33:18;7;7;
36453;PMS5003;22478;51.740;-1.314;2023-04-06T13:35:45;12;12;
36453;PMS5003;22478;51.740;-1.314;2023-04-06T13:38:12;10;10;
36453;PMS5003;22478;51.740;-1.314;2023-04-06T13:40:39;13;13;
36453;PMS5003;22478;51.740;-1.314;2023-04-06T13:43:07;16;14;
36453;PMS5003;22478;51.740;-1.314;2023-04-06T13:45:34;11;8;
36453;PMS5003;22478;51.740;-1.314;2023-04-06T13:48:01;5;5;
36453;PMS5003;22478;51.740;-1.314;2023-04-06T13:50:28;4;4;
36453;PMS5003;22478;51.740;-1.314;2023-04-06T13:52:55;7;7;
36453;PMS5003;22478;51.740;-1.314;2023-04-06T13:55:22;7;7;
36453;PMS5003;22478;51.740;-1.314;2023-04-06T13:57:49;7;7;
36453;PMS5003;22478;51.740;-1.314;2023-04-06T14:00:17;8;6;
36453;PMS5003;22478;51.740;-1.314;2023-04-06T14:02:45;7;7;
36453;PMS5003;22478;51.740;-1.314;2023-04-06T14:05:12;5;5;
36453;PMS5003;22478;51.740;-1.314;2023-04-06T14:07:40;4;4;
36453;PMS5003;22478;51.740;-1.314;2023-04-06T14:10:08;6;6;
36453;PMS5003;22478;51.740;-1.314;2023-04-06T14:12:35;2;2;
36453;PMS5003;22478;51.740;-1.314;2023-04-06T14:15:02;7;5;
36453;PMS5003;22478;51.740;-1.314;2023-04-06T14:17:30;6;6;
36453;PMS5003;22478;51.740;-1.314;2023-04-06T14:19:57;6;4;
36453;PMS5003;22478;51.740;-1.314;2023-04-06T14:22:24;5;5;
36453;PMS5003;22478;51.740;-1.314;2023-04-06T14:24:51;1;1;
36453;PMS5003;22478;51.740;-1.314;2023-04-06T14:27:18;1;1;
36453;PMS5003;22478;51.740;-1.314;2023-04-06T14:29:45;1;1;
36453;PMS5003;22478;51.740;-1.314;2023-04-06T14:32:12;1;1;
36453;PMS5003;22478;51.740;-1.314;2023-04-06T14:34:39;2;2;
36453;PMS5003;22478;51.740;-1.314;2023-04-06T14:37:06;3;3;
36453;PMS5003;22478;51.740;-1.314;2023-04-06T14:39:33;0;0;
36453;PMS5003;22478;51.740;-1.314;2023-04-06T14:42:01;5;5;
36453;PMS5003;22478;51.740;-1.314;2023-04-06T14:44:28;4;4;
36453;PMS5003;22478;51.740;-1.314;2023-04-06T14:46:55;7;7;
36453;PMS5003;22478;51.740;-1.314;2023-04-06T14:49:22;20;18;
36453;PMS5003;22478;51.740;-1.314;2023-04-06T14:51:50;8;8;
36453;PMS5003;22478;51.740;-1.314;2023-04-06T14:54:17;20;20;
36453;PMS5003;22478;51.740;-1.314;2023-04-06T14:56:43;9;9;
36453;PMS5003;22478;51.740;-1.314;2023-04-06T14:59:11;11;11;
36453;PMS5003;22478;51.740;-1.314;2023-04-06T15:01:39;25;24;
36453;PMS5003;22478;51.740;-1.314;2023-04-06T15:04:06;9;8;
36453;PMS5003;22478;51.740;-1.314;2023-04-06T15:06:33;11;11;
36453;PMS5003;22478;51.740;-1.314;2023-04-06T15:09:01;9;9;
36453;PMS5003;22478;51.740;-1.314;2023-04-06T15:11:28;16;16;
36453;PMS5003;22478;51.740;-1.314;2023-04-06T15:13:55;21;19;
36453;PMS5003;22478;51.740;-1.314;2023-04-06T15:16:23;23;23;
36453;PMS5003;22478;51.740;-1.314;2023-04-06T15:18:51;16;15;
36453;PMS5003;22478;51.740;-1.314;2023-04-06T15:21:18;18;17;
36453;PMS5003;22478;51.740;-1.314;2023-04-06T15:23:45;11;11;
36453;PMS5003;22478;51.740;-1.314;2023-04-06T15:26:12;21;21;
36453;PMS5003;22478;51.740;-1.314;2023-04-06T15:28:40;17;17;
36453;PMS5003;22478;51.740;-1.314;2023-04-06T15:31:12;18;18;
36453;PMS5003;22478;51.740;-1.314;2023-04-06T15:33:41;21;21;
36453;PMS5003;22478;51.740;-1.314;2023-04-06T15:36:16;15;15;
36453;PMS5003;22478;51.740;-1.314;2023-04-06T15:38:49;17;17;
36453;PMS5003;22478;51.740;-1.314;2023-04-06T15:41:17;17;17;
36453;PMS5003;22478;51.740;-1.314;2023-04-06T15:43:44;19;19;
36453;PMS5003;22478;51.740;-1.314;2023-04-06T15:46:11;21;20;
36453;PMS5003;22478;51.740;-1.314;2023-04-06T15:48:39;19;19;
36453;PMS5003;22478;51.740;-1.314;2023-04-06T15:51:08;20;20;
36453;PMS5003;22478;51.740;-1.314;2023-04-06T15:53:35;15;13;
36453;PMS5003;22478;51.740;-1.314;2023-04-06T15:56:03;10;10;
36453;PMS5003;22478;51.740;-1.314;2023-04-06T15:58:32;12;12;
36453;PMS5003;22478;51.740;-1.314;2023-04-06T16:00:59;9;7;
36453;PMS5003;22478;51.740;-1.314;2023-04-06T16:03:27;9;9;
36453;PMS5003;22478;51.740;-1.314;2023-04-06T16:05:54;9;9;
36453;PMS5003;22478;51.740;-1.314;2023-04-06T16:08:22;8;8;
36453;PMS5003;22478;51.740;-1.314;2023-04-06T16:10:49;5;5;
36453;PMS5003;22478;51.740;-1.314;2023-04-06T16:13:16;8;8;
36453;PMS5003;22478;51.740;-1.314;2023-04-06T16:15:43;9;9;